Time;durP1;ratioP1;P1;durP2;ratioP2;P2;SDS_P1;SDS_P2;PMS_P1;PMS_P2;Temp;Humidity;BMP_temperature;BMP_pressure;BME280_temperature;BME280_humidity;BME280_pressure;Samples;Min_cycle;Max_cycle;Signal;HPM_P1;HPM_P2
2022/10/01 00:01:13;;;;;;;18.40;16.50;;;;;;;15.61;80.46;100184.74;1673222;84;21045;-74
2022/10/01 00:03:40;;;;;;;18.67;16.70;;;;;;;15.56;80.25;100180.88;1681541;83;22505;-74
2022/10/01 00:06:13;;;;;;;19.35;17.25;;;;;;;15.51;80.27;100174.67;1679738;83;21377;-73
2022/10/01 00:08:41;;;;;;;19.67;17.55;;;;;;;15.48;80.30;100179.49;1680321;84;21555;-73
2022/10/01 00:11:14;;;;;;;20.37;17.15;;;;;;;15.45;80.39;100169.50;1682270;83;21487;-73
2022/10/01 00:13:41;;;;;;;20.40;18.30;;;;;;;15.45;80.45;100169.50;1682689;83;20999;-76
2022/10/01 00:16:14;;;;;;;20.75;18.62;;;;;;;15.48;80.38;100171.50;1677374;85;22673;-73
2022/10/01 00:18:44;;;;;;;24.25;19.37;;;;;;;15.49;80.30;100174.00;1675332;83;21011;-73
2022/10/01 00:21:16;;;;;;;21.50;18.52;;;;;;;15.49;80.23;100178.50;1684181;85;21011;-73
2022/10/01 00:23:43;;;;;;;21.55;19.10;;;;;;;15.44;80.27;100175.83;1681206;83;21010;-73
2022/10/01 00:26:21;;;;;;;40.58;19.82;;;;;;;15.43;80.41;100177.28;1684773;84;21082;-73
2022/10/01 00:28:57;;;;;;;30.37;19.95;;;;;;;15.39;80.65;100179.44;1667984;83;22540;-73
2022/10/01 00:33:58;;;;;;;50.20;18.82;;;;;;;15.34;81.08;100183.05;1661378;83;21015;-76
2022/10/01 00:36:25;;;;;;;36.42;18.37;;;;;;;15.32;81.17;100180.22;1677671;84;21005;-74
2022/10/01 00:38:58;;;;;;;43.68;18.62;;;;;;;15.31;81.30;100178.55;1680457;83;21059;-73
2022/10/01 00:41:21;;;;;;;19.73;17.73;;;;;;;15.30;81.34;100173.73;1681039;83;22889;-73
2022/10/01 00:43:54;;;;;;;24.25;17.95;;;;;;;15.29;81.47;100168.07;1684893;83;20987;-73
2022/10/01 00:46:40;;;;;;;22.93;18.90;;;;;;;15.30;81.62;100172.89;1679734;85;21481;-73
2022/10/01 00:49:14;;;;;;;21.02;18.75;;;;;;;15.28;81.70;100171.73;1706027;84;21387;-73
2022/10/01 00:51:43;;;;;;;;;;;;;;;15.27;81.77;100169.23;1684449;83;21031;-73
2022/10/01 00:54:17;;;;;;;20.20;18.12;;;;;;;15.26;81.85;100172.88;1674041;85;22140;-74
2022/10/01 00:56:45;;;;;;;20.82;17.95;;;;;;;15.24;81.97;100173.02;1673966;83;21518;-73
2022/10/01 00:59:12;;;;;;;20.45;18.30;;;;;;;15.22;81.99;100179.49;1656883;85;21015;-73
2022/10/01 01:01:38;;;;;;;20.80;18.07;;;;;;;15.18;81.99;100182.97;1656739;83;21129;-73
2022/10/01 01:04:15;;;;;;;20.62;18.32;;;;;;;15.15;82.08;100182.80;1670468;83;21109;-74
2022/10/01 01:06:34;;;;;;;22.62;18.77;;;;;;;15.14;82.28;100179.77;1687214;83;22583;-73
2022/10/01 01:09:03;;;;;;;21.35;18.45;;;;;;;15.14;82.48;100178.44;1690694;84;20991;-73
2022/10/01 01:11:47;;;;;;;20.32;18.12;;;;;;;15.14;82.63;100174.95;1687225;83;20950;-73
2022/10/01 01:14:53;;;;;;;25.08;19.23;;;;;;;15.15;82.71;100180.14;1689561;84;20975;-74
2022/10/01 01:17:44;;;;;;;21.85;18.55;;;;;;;15.15;82.77;100169.49;1677584;84;21028;-74
2022/10/01 01:20:41;;;;;;;22.20;19.10;;;;;;;15.18;82.85;100173.66;1692898;83;21952;-73
2022/10/01 01:23:19;;;;;;;20.32;18.23;;;;;;;15.18;82.99;100171.83;1688996;84;20990;-73
2022/10/01 01:25:50;;;;;;;19.80;17.05;;;;;;;15.20;83.06;100172.17;1697839;82;21066;-73
2022/10/01 01:28:24;;;;;;;19.48;17.05;;;;;;;15.19;83.00;100171.34;1662346;85;20984;-73
2022/10/01 01:30:54;;;;;;;18.67;16.67;;;;;;;15.17;82.89;100176.81;1685141;84;21063;-73
2022/10/01 01:33:21;;;;;;;18.27;16.40;;;;;;;15.15;82.72;100173.48;1686963;83;22583;-74
2022/10/01 01:35:58;;;;;;;22.00;17.25;;;;;;;15.14;82.60;100174.45;1714727;83;21051;-73
2022/10/01 01:38:28;;;;;;;17.75;15.75;;;;;;;15.12;82.43;100179.59;1716324;83;21377;-74
2022/10/01 01:40:59;;;;;;;16.97;14.95;;;;;;;15.09;82.20;100180.75;1706436;82;21037;-73
2022/10/01 01:43:32;;;;;;;16.57;14.73;;;;;;;15.07;81.95;100177.91;1687888;85;20978;-73
2022/10/01 01:46:01;;;;;;;12.10;10.45;;;;;;;15.05;81.81;100176.71;1678228;83;21964;-73
2022/10/01 01:48:28;;;;;;;17.20;13.30;;;;;;;15.01;81.69;100177.19;1711178;82;20957;-73
2022/10/01 01:51:00;;;;;;;17.35;13.35;;;;;;;14.95;81.60;100175.14;1683418;83;21068;-73
2022/10/01 01:53:29;;;;;;;18.23;16.30;;;;;;;14.89;81.49;100181.43;1687732;84;20986;-73
2022/10/01 01:55:56;;;;;;;18.65;15.55;;;;;;;14.81;81.15;100188.01;1675788;83;20985;-73
2022/10/01 01:58:24;;;;;;;19.05;16.10;;;;;;;14.70;80.98;100189.58;1683946;85;21728;-73
2022/10/01 02:00:55;;;;;;;18.45;16.40;;;;;;;14.66;81.01;100191.34;1685706;83;21489;-74
2022/10/01 02:03:21;;;;;;;20.23;16.30;;;;;;;14.63;81.12;100203.13;1688180;83;21042;-73
2022/10/01 02:06:13;;;;;;;21.68;16.20;;;;;;;14.62;81.08;100197.47;1663815;84;21051;-74
2022/10/01 02:08:48;;;;;;;21.52;16.45;;;;;;;14.60;81.03;100190.98;1695989;83;21002;-74
2022/10/01 02:11:29;;;;;;;17.80;14.98;;;;;;;14.59;80.96;100186.66;1685275;84;21872;-73
2022/10/01 02:14:27;;;;;;;21.85;15.05;;;;;;;14.57;80.90;100189.97;1701457;84;21108;-73
2022/10/01 02:17:09;;;;;;;18.45;16.23;;;;;;;14.53;80.79;100186.42;1695859;83;20975;-73
2022/10/01 02:19:45;;;;;;;23.32;17.02;;;;;;;14.49;80.71;100190.39;1690358;82;20987;-73
2022/10/01 02:22:18;;;;;;;20.17;16.93;;;;;;;14.46;80.68;100186.19;1684900;84;21437;-73
2022/10/01 02:24:48;;;;;;;;;;;;;;;14.45;80.67;100179.70;1679567;84;21945;-73
2022/10/01 02:27:22;;;;;;;21.55;16.85;;;;;;;14.45;80.74;100181.86;1700252;82;20177;-74
2022/10/01 02:29:50;;;;;;;22.27;16.67;;;;;;;14.45;80.76;100181.02;1677496;83;21096;-74
2022/10/01 02:32:17;;;;;;;21.25;15.90;;;;;;;14.42;80.63;100174.17;1699313;84;20983;-73
2022/10/01 02:34:44;;;;;;;19.60;15.58;;;;;;;14.39;80.44;100180.29;1670186;84;21438;-74
2022/10/01 02:37:10;;;;;;;18.32;15.23;;;;;;;14.33;80.32;100178.56;1694007;84;21831;-74
2022/10/01 02:39:37;;;;;;;19.42;15.10;;;;;;;14.30;80.26;100174.89;1681914;83;20959;-74
2022/10/01 02:42:04;;;;;;;19.12;15.43;;;;;;;14.29;80.17;100182.52;1699087;84;20975;-73
2022/10/01 02:44:36;;;;;;;18.10;15.75;;;;;;;14.25;79.87;100171.00;1694869;84;21010;-74
2022/10/01 02:47:15;;;;;;;19.12;15.43;;;;;;;14.20;79.78;100170.13;1694756;84;20994;-73
2022/10/01 02:49:42;;;;;;;17.57;15.55;;;;;;;14.18;79.76;100180.55;1697707;83;21820;-73
2022/10/01 02:52:43;;;;;;;19.87;15.70;;;;;;;14.16;79.59;100184.68;1675692;84;21009;-74
2022/10/01 02:55:15;;;;;;;17.17;15.38;;;;;;;14.12;79.42;100183.32;1696064;84;21389;-73
2022/10/01 02:57:42;;;;;;;23.07;16.30;;;;;;;14.07;79.38;100183.41;1685271;83;21448;-73
2022/10/01 03:00:11;;;;;;;18.80;15.48;;;;;;;14.04;79.49;100176.59;1712366;83;20960;-73
2022/10/01 03:02:39;;;;;;;18.23;15.95;;;;;;;14.01;79.52;100172.42;1727009;83;21886;-73
2022/10/01 03:05:06;;;;;;;19.95;15.32;;;;;;;14.02;79.53;100167.94;1697122;83;20947;-73
2022/10/01 03:07:34;;;;;;;19.25;16.00;;;;;;;14.01;79.51;100161.80;1668732;83;21030;-73
2022/10/01 03:10:03;;;;;;;16.45;14.75;;;;;;;14.01;79.41;100166.27;1659592;85;21046;-73
2022/10/01 03:12:32;;;;;;;18.98;15.05;;;;;;;13.98;79.32;100159.91;1679408;85;21076;-73
2022/10/01 03:14:58;;;;;;;17.62;14.35;;;;;;;13.95;79.18;100164.20;1682857;85;22343;-74
2022/10/01 03:17:25;;;;;;;18.55;14.43;;;;;;;13.92;79.17;100160.52;1685455;83;21055;-74
2022/10/01 03:19:51;;;;;;;20.02;14.68;;;;;;;13.90;79.20;100159.84;1688867;83;21012;-74
2022/10/01 03:22:21;;;;;;;16.93;14.40;;;;;;;13.87;79.27;100164.94;1658453;86;21011;-73
2022/10/01 03:24:51;;;;;;;18.60;14.30;;;;;;;13.84;79.20;100159.93;1680323;85;21007;-73
2022/10/01 03:27:19;;;;;;;21.15;14.87;;;;;;;13.83;79.18;100169.37;1668187;85;21898;-73
2022/10/01 03:32:20;;;;;;;;;;;;;;;13.75;78.82;100163.47;1678778;85;21493;-73
2022/10/01 03:34:47;;;;;;;19.40;14.47;;;;;;;13.71;78.88;100168.25;1685109;83;20480;-73
2022/10/01 03:37:13;;;;;;;17.15;13.32;;;;;;;13.67;78.84;100173.48;1686540;84;21054;-73
2022/10/01 03:39:40;;;;;;;22.07;15.50;;;;;;;13.63;78.79;100176.10;1684293;83;22827;-75
2022/10/01 03:42:07;;;;;;;84.03;16.82;;;;;;;13.58;78.83;100174.36;1685561;83;21423;-73
2022/10/01 03:44:42;;;;;;;32.63;17.55;;;;;;;13.55;78.90;100179.13;1670506;83;21014;-73
2022/10/01 03:47:09;;;;;;;20.37;16.67;;;;;;;13.52;79.06;100172.31;1685687;85;20968;-73
2022/10/01 03:49:36;;;;;;;78.17;18.55;;;;;;;13.51;79.34;100167.98;1668781;85;21469;-73
2022/10/01 03:52:03;;;;;;;38.90;17.82;;;;;;;13.52;79.55;100165.67;1665011;84;21839;-73
2022/10/01 03:54:30;;;;;;;36.42;18.92;;;;;;;13.52;79.75;100165.67;1684229;83;21069;-74
2022/10/01 03:56:57;;;;;;;24.12;19.27;;;;;;;13.54;79.91;100165.53;1686214;84;21105;-73
2022/10/01 03:59:26;;;;;;;129.75;21.25;;;;;;;13.55;80.00;100171.17;1684019;83;21074;-73
2022/10/01 04:02:00;;;;;;;182.02;20.85;;;;;;;13.57;80.08;100175.34;1685000;85;21014;-73
2022/10/01 04:04:27;;;;;;;25.37;18.30;;;;;;;13.58;80.00;100184.14;1683092;83;22219;-73
2022/10/01 04:06:54;;;;;;;31.45;18.52;;;;;;;13.57;79.87;100179.81;1681924;84;20960;-74
2022/10/01 04:09:21;;;;;;;68.72;19.02;;;;;;;13.56;80.04;100182.13;1674080;83;21061;-73
2022/10/01 04:11:48;;;;;;;65.03;18.65;;;;;;;13.59;80.30;100187.14;1680509;85;20968;-73
2022/10/01 04:14:14;;;;;;;112.50;19.65;;;;;;;13.62;80.54;100185.05;1682845;84;21023;-73
2022/10/01 04:16:41;;;;;;;94.55;20.17;;;;;;;13.65;80.71;100178.60;1657328;85;21973;-73
2022/10/01 04:19:07;;;;;;;98.47;19.98;;;;;;;13.67;80.80;100181.45;1681953;83;21003;-73
2022/10/01 04:21:35;;;;;;;131.35;19.52;;;;;;;13.68;80.98;100182.28;1678087;83;21003;-73
2022/10/01 04:24:03;;;;;;;186.80;19.95;;;;;;;13.70;81.19;100177.20;1678902;85;21032;-73
2022/10/01 04:26:30;;;;;;;169.32;19.45;;;;;;;13.72;81.42;100169.91;1668047;85;21030;-74
2022/10/01 04:28:56;;;;;;;158.10;20.23;;;;;;;13.75;81.62;100173.59;1656786;85;22623;-73
2022/10/01 04:31:23;;;;;;;133.45;19.40;;;;;;;13.78;81.84;100173.78;1662302;85;21501;-74
2022/10/01 04:33:53;;;;;;;122.58;18.95;;;;;;;13.81;82.02;100177.98;1682802;84;21571;-74
2022/10/01 04:36:19;;;;;;;62.88;18.12;;;;;;;13.81;82.10;100184.62;1682354;83;21054;-74
2022/10/01 04:38:46;;;;;;;101.80;17.73;;;;;;;13.83;82.27;100180.83;1683350;84;21055;-73
2022/10/01 04:41:13;;;;;;;160.35;17.10;;;;;;;13.88;82.48;100177.72;1679241;83;21507;-74
2022/10/01 04:43:40;;;;;;;133.03;14.53;;;;;;;13.92;82.67;100176.45;1677311;83;21546;-73
2022/10/01 04:46:06;;;;;;;63.92;13.28;;;;;;;13.96;82.85;100178.65;1682561;83;21411;-73
2022/10/01 04:48:33;;;;;;;61.08;13.30;;;;;;;14.01;83.02;100170.25;1666825;83;21496;-74
2022/10/01 04:51:00;;;;;;;56.35;13.05;;;;;;;14.06;83.21;100171.12;1704419;83;21114;-73
2022/10/01 04:53:26;;;;;;;35.28;12.78;;;;;;;14.09;83.32;100174.80;1702937;83;21992;-73
2022/10/01 04:55:52;;;;;;;23.62;12.63;;;;;;;14.14;83.39;100171.22;1672553;85;21075;-74
2022/10/01 04:58:19;;;;;;;14.23;12.85;;;;;;;14.18;83.48;100169.42;1664746;85;21059;-73
2022/10/01 05:00:45;;;;;;;14.43;13.03;;;;;;;14.23;83.67;100165.84;1672010;85;21064;-73
2022/10/01 05:03:12;;;;;;;14.20;12.70;;;;;;;14.30;83.92;100171.39;1654856;85;21018;-73
2022/10/01 05:05:39;;;;;;;13.00;11.38;;;;;;;14.37;84.16;100175.09;1679159;84;22548;-73
2022/10/01 05:08:06;;;;;;;14.07;12.60;;;;;;;14.45;84.47;100178.37;1675503;85;21094;-74
2022/10/01 05:10:34;;;;;;;14.58;13.08;;;;;;;14.51;84.71;100183.09;1679586;85;21055;-74
2022/10/01 05:13:01;;;;;;;15.70;13.93;;;;;;;14.57;84.90;100185.13;1704860;83;20976;-74
2022/10/01 05:15:28;;;;;;;14.78;13.13;;;;;;;14.64;85.08;100182.70;1685520;83;20995;-74
2022/10/01 05:17:55;;;;;;;17.87;14.60;;;;;;;14.70;85.29;100189.58;1698320;82;22472;-75
2022/10/01 05:20:24;;;;;;;18.55;15.45;;;;;;;14.77;85.49;100199.12;1681997;84;21018;-74
2022/10/01 05:22:51;;;;;;;19.55;16.05;;;;;;;14.82;85.63;100198.14;1715710;82;21004;-74
2022/10/01 05:25:18;;;;;;;16.77;13.98;;;;;;;14.90;85.89;100200.88;1712861;82;21013;-74
2022/10/01 05:27:44;;;;;;;18.70;15.75;;;;;;;15.00;86.14;100207.44;1714336;83;21071;-74
2022/10/01 05:30:12;;;;;;;18.05;15.50;;;;;;;15.08;86.35;100216.32;1688493;83;21963;-74
2022/10/01 05:32:39;;;;;;;22.13;16.70;;;;;;;15.13;86.34;100208.70;1708643;82;21079;-74
2022/10/01 05:35:07;;;;;;;19.90;16.25;;;;;;;15.15;86.29;100206.74;1703219;82;21407;-75
2022/10/01 05:37:35;;;;;;;20.60;16.67;;;;;;;15.17;86.23;100212.73;1699663;82;21145;-75
2022/10/01 05:40:02;;;;;;;21.35;16.95;;;;;;;15.17;86.18;100211.41;1706042;83;21003;-74
2022/10/01 05:42:29;;;;;;;19.90;16.62;;;;;;;15.20;86.25;100208.09;1715325;83;21947;-74
2022/10/01 05:44:57;;;;;;;18.95;16.97;;;;;;;15.23;86.30;100208.59;1709658;83;21436;-73
2022/10/01 05:47:23;;;;;;;18.77;16.57;;;;;;;15.29;86.41;100204.00;1680580;85;21457;-73
2022/10/01 05:49:50;;;;;;;20.85;17.65;;;;;;;15.37;86.59;100212.03;1677770;85;21003;-73
2022/10/01 05:52:16;;;;;;;17.52;15.65;;;;;;;15.45;86.73;100223.23;1707214;83;21544;-81
2022/10/01 05:54:43;;;;;;;20.32;18.12;;;;;;;15.56;86.87;100222.13;1694950;83;22595;-74
2022/10/01 05:57:10;;;;;;;23.15;17.70;;;;;;;15.64;86.87;100224.88;1707149;83;21042;-76
2022/10/01 05:59:37;;;;;;;20.57;17.57;;;;;;;15.72;86.98;100227.06;1731989;81;21004;-75
2022/10/01 06:02:04;;;;;;;23.05;16.93;;;;;;;15.85;87.11;100225.31;1720261;82;21074;-74
2022/10/01 06:04:32;;;;;;;20.35;17.35;;;;;;;15.98;87.27;100227.03;1687506;85;21378;-74
2022/10/01 06:06:59;;;;;;;20.30;16.52;;;;;;;16.12;87.35;100229.59;1675738;85;21927;-74
2022/10/01 06:09:26;;;;;;;21.87;15.45;;;;;;;16.26;87.44;100237.45;1689253;83;21296;-74
2022/10/01 06:11:54;;;;;;;19.20;14.55;;;;;;;16.43;87.51;100235.19;1689396;84;20994;-75
2022/10/01 06:14:21;;;;;;;18.30;15.78;;;;;;;16.58;87.45;100227.37;1714803;83;21087;-74
2022/10/01 06:16:53;;;;;;;16.85;14.40;;;;;;;16.73;87.29;100228.44;1708837;83;21557;-74
2022/10/01 06:19:21;;;;;;;20.02;14.87;;;;;;;16.90;87.06;100224.45;1710141;83;24084;-75
2022/10/01 06:21:48;;;;;;;21.50;14.25;;;;;;;17.03;86.69;100229.61;1694844;84;21092;-76
2022/10/01 06:24:14;;;;;;;16.23;13.78;;;;;;;17.18;86.24;100216.45;1715448;83;21054;-76
2022/10/01 06:26:42;;;;;;;14.43;12.93;;;;;;;17.35;86.13;100218.57;1719810;83;21080;-82
2022/10/01 06:29:10;;;;;;;15.75;14.05;;;;;;;17.49;85.55;100223.23;1723254;83;21038;-75
2022/10/01 06:31:36;;;;;;;17.60;12.70;;;;;;;17.64;84.97;100226.02;1725235;82;21906;-74
2022/10/01 06:34:03;;;;;;;16.20;13.10;;;;;;;17.77;84.11;100220.20;1704339;82;21504;-75
2022/10/01 06:36:29;;;;;;;14.73;12.75;;;;;;;17.91;83.54;100226.14;1720004;82;21079;-80
2022/10/01 06:38:56;;;;;;;14.78;11.55;;;;;;;18.04;82.68;100223.73;1714725;82;21035;-75
2022/10/01 06:41:23;;;;;;;14.15;11.85;;;;;;;18.16;81.72;100228.22;1716156;83;21011;-76
2022/10/01 06:43:50;;;;;;;13.55;11.28;;;;;;;18.29;80.62;100231.98;1716655;83;21594;-76
2022/10/01 06:46:16;;;;;;;16.12;11.05;;;;;;;18.41;80.07;100223.56;1729304;82;21730;-76
2022/10/01 06:48:43;;;;;;;11.78;10.53;;;;;;;18.49;78.14;100236.38;1719802;82;21081;-76
2022/10/01 06:51:10;;;;;;;10.85;9.28;;;;;;;18.59;77.59;100236.98;1693884;83;20999;-75
2022/10/01 06:53:37;;;;;;;11.50;9.90;;;;;;;18.68;76.04;100241.81;1687615;85;20997;-77
2022/10/01 06:56:05;;;;;;;12.30;8.43;;;;;;;18.77;74.64;100236.73;1687515;85;21826;-76
2022/10/01 06:58:32;;;;;;;13.22;9.58;;;;;;;18.83;74.50;100233.36;1687732;85;20994;-75
2022/10/01 07:01:00;;;;;;;10.70;7.53;;;;;;;18.93;74.03;100237.13;1649071;85;20978;-75
2022/10/01 07:03:26;;;;;;;9.38;7.40;;;;;;;19.02;73.50;100236.56;1688032;85;20982;-75
2022/10/01 07:05:53;;;;;;;7.90;6.50;;;;;;;19.09;71.76;100232.96;1723958;82;21458;-75
2022/10/01 07:08:21;;;;;;;9.60;6.45;;;;;;;19.13;70.34;100232.12;1703409;82;21719;-76
2022/10/01 07:10:48;;;;;;;7.55;6.33;;;;;;;19.20;70.51;100237.05;1675870;85;20962;-76
2022/10/01 07:13:19;;;;;;;9.38;6.50;;;;;;;19.28;69.85;100242.34;1675954;85;20962;-76
2022/10/01 07:15:45;;;;;;;8.28;5.95;;;;;;;19.37;69.67;100241.25;1675030;85;20963;-75
2022/10/01 07:18:12;;;;;;;7.70;5.62;;;;;;;19.45;69.31;100246.53;1675351;85;21054;-75
2022/10/01 07:20:39;;;;;;;8.23;5.10;;;;;;;19.55;68.74;100249.46;1675979;85;22633;-75
2022/10/01 07:23:11;;;;;;;6.53;4.78;;;;;;;19.67;68.19;100245.34;1676067;85;21074;-76
2022/10/01 07:25:38;;;;;;;10.15;5.03;;;;;;;19.76;66.58;100239.38;1685780;84;20946;-76
2022/10/01 07:28:07;;;;;;;6.62;4.62;;;;;;;19.83;66.32;100249.19;1703887;83;21386;-75
2022/10/01 07:30:34;;;;;;;7.85;4.53;;;;;;;19.93;66.13;100252.93;1704266;84;21046;-76
2022/10/01 07:33:02;;;;;;;4.97;4.30;;;;;;;20.03;65.61;100248.12;1704272;83;21965;-76
2022/10/01 07:35:28;;;;;;;4.85;3.72;;;;;;;20.14;63.74;100233.41;1704137;84;20951;-76
2022/10/01 07:37:54;;;;;;;4.65;4.10;;;;;;;20.21;63.48;100238.34;1704223;84;21015;-75
2022/10/01 07:40:21;;;;;;;5.25;4.28;;;;;;;20.30;63.88;100231.86;1684393;84;21041;-75
2022/10/01 07:42:55;;;;;;;6.65;3.77;;;;;;;20.41;63.86;100239.41;1675508;85;21058;-76
2022/10/01 07:45:22;;;;;;;;;;;;;;;20.54;62.74;100238.75;1674523;84;21928;-76
2022/10/01 07:48:00;;;;;;;6.70;3.90;;;;;;;20.62;61.53;100239.15;1674163;85;21129;-76
2022/10/01 07:50:29;;;;;;;6.30;3.50;;;;;;;20.64;61.42;100234.41;1674490;85;21004;-76
2022/10/01 07:52:57;;;;;;;3.92;3.30;;;;;;;20.63;61.25;100232.25;1629541;87;38597;-75
2022/10/01 07:55:27;;;;;;;5.37;3.40;;;;;;;20.70;60.91;100237.69;1629633;88;21032;-76
2022/10/01 07:57:56;;;;;;;4.78;3.25;;;;;;;20.78;61.19;100228.17;1632381;86;21971;-76
2022/10/01 08:00:26;;;;;;;4.97;4.15;;;;;;;20.90;60.80;100235.20;1663187;85;21026;-76
2022/10/01 08:02:54;;;;;;;6.75;3.80;;;;;;;20.98;60.54;100231.05;1663580;85;21001;-76
2022/10/01 08:05:27;;;;;;;5.83;3.62;;;;;;;21.07;60.19;100225.86;1668811;84;21033;-76
2022/10/01 08:08:00;;;;;;;4.85;3.22;;;;;;;21.15;59.60;100232.44;1694990;83;21154;-76
2022/10/01 08:10:27;;;;;;;6.00;2.90;;;;;;;21.24;59.41;100235.83;1728353;83;22300;-76
2022/10/01 08:13:13;;;;;;;5.85;2.87;;;;;;;21.38;58.63;100234.41;1699289;82;21059;-76
2022/10/01 08:15:37;;;;;;;4.30;2.98;;;;;;;21.50;57.66;100236.55;1686739;85;21459;-76
2022/10/01 08:18:05;;;;;;;4.17;2.90;;;;;;;21.60;57.30;100232.48;1684980;83;21056;-77
2022/10/01 08:20:31;;;;;;;4.17;3.20;;;;;;;21.72;57.28;100228.75;1698502;83;21520;-76
2022/10/01 08:23:03;;;;;;;3.33;2.70;;;;;;;21.81;57.07;100227.56;1691205;84;22594;-76
2022/10/01 08:25:29;;;;;;;3.20;2.47;;;;;;;21.88;55.20;100223.03;1691066;84;21439;-76
2022/10/01 08:27:56;;;;;;;3.47;2.33;;;;;;;21.94;54.99;100222.77;1691284;84;20971;-76
2022/10/01 08:30:24;;;;;;;3.35;2.90;;;;;;;22.00;54.63;100227.33;1695997;84;21055;-76
2022/10/01 08:32:58;;;;;;;6.35;2.62;;;;;;;22.07;54.71;100223.36;1663617;85;21083;-76
2022/10/01 08:35:26;;;;;;;3.10;2.55;;;;;;;22.13;54.71;100213.98;1673188;84;21837;-76
2022/10/01 08:37:54;;;;;;;3.92;2.83;;;;;;;22.25;54.33;100211.02;1656423;84;21015;-76
2022/10/01 08:40:20;;;;;;;3.98;2.60;;;;;;;22.34;52.35;100208.16;1723903;83;21059;-76
2022/10/01 08:42:58;;;;;;;3.30;2.27;;;;;;;22.37;52.45;100212.61;1710086;82;21019;-76
2022/10/01 08:45:33;;;;;;;4.22;2.40;;;;;;;22.43;51.91;100205.08;1699601;84;20952;-76
2022/10/01 08:48:15;;;;;;;2.67;2.22;;;;;;;22.51;52.35;100208.94;1701336;84;22361;-76
2022/10/01 08:51:09;;;;;;;4.50;2.25;;;;;;;22.64;52.37;100214.03;1700148;84;20935;-76
2022/10/01 08:53:53;;;;;;;3.02;2.27;;;;;;;22.68;51.30;100217.47;1697755;84;20956;-76
2022/10/01 08:56:33;;;;;;;3.25;2.50;;;;;;;22.62;51.20;100219.63;1704775;83;21008;-76
2022/10/01 08:59:25;;;;;;;4.28;2.30;;;;;;;22.59;50.95;100218.69;1717448;82;21037;-76
2022/10/01 09:01:51;;;;;;;4.50;2.85;;;;;;;22.69;51.54;100225.86;1678789;83;21848;-75
2022/10/01 09:04:18;;;;;;;3.67;2.95;;;;;;;22.88;52.02;100222.09;1663937;85;20991;-76
2022/10/01 09:06:44;;;;;;;3.67;2.50;;;;;;;23.06;51.93;100227.15;1674523;83;21086;-77
2022/10/01 09:09:30;;;;;;;3.00;2.70;;;;;;;23.23;51.55;100227.57;1656282;84;21070;-79
2022/10/01 09:12:16;;;;;;;4.03;2.98;;;;;;;23.41;50.67;100226.42;1670726;84;21055;-79
2022/10/01 09:15:20;;;;;;;4.92;2.83;;;;;;;23.47;49.30;100226.12;1681240;84;21829;-73
2022/10/01 09:18:08;;;;;;;;;;;;;;;23.46;49.66;100223.12;1682354;84;20942;-75
2022/10/01 09:20:37;;;;;;;6.37;3.60;;;;;;;23.46;49.38;100206.12;1718625;82;20437;-77
2022/10/01 09:23:29;;;;;;;4.25;3.05;;;;;;;23.55;50.18;100209.73;1683245;83;21488;-76
2022/10/01 09:25:58;;;;;;;2.75;2.20;;;;;;;23.70;50.31;100202.23;1689594;84;21500;-74
2022/10/01 09:28:33;;;;;;;2.67;1.90;;;;;;;23.88;48.65;100200.22;1667808;84;22546;-73
2022/10/01 09:31:25;;;;;;;3.58;2.10;;;;;;;23.99;48.72;100194.68;1688010;84;21064;-74
2022/10/01 09:34:02;;;;;;;2.20;2.00;;;;;;;24.09;48.29;100194.22;1691412;84;21605;-75
2022/10/01 09:36:51;;;;;;;2.50;1.72;;;;;;;24.26;47.49;100189.99;1685749;83;21122;-73
2022/10/01 09:39:25;;;;;;;4.35;1.85;;;;;;;24.40;46.34;100194.30;1691393;84;21527;-74
2022/10/01 09:41:51;;;;;;;4.50;1.95;;;;;;;24.43;46.23;100199.28;1667445;84;22007;-75
2022/10/01 09:44:25;;;;;;;3.58;2.00;;;;;;;24.56;46.69;100191.61;1670690;84;21687;-74
2022/10/01 09:46:52;;;;;;;2.25;1.87;;;;;;;24.66;46.53;100190.61;1699323;83;21057;-74
2022/10/01 09:49:38;;;;;;;5.12;3.50;;;;;;;24.73;46.40;100194.10;1692241;84;21026;-76
2022/10/01 09:52:27;;;;;;;3.45;2.50;;;;;;;24.82;46.43;100193.31;1684742;84;21101;-76
2022/10/01 09:55:07;;;;;;;2.83;1.98;;;;;;;24.80;46.20;100190.84;1664586;85;21821;-74
2022/10/01 09:57:45;;;;;;;11.20;4.35;;;;;;;24.81;46.26;100193.84;1674101;84;21521;-75
2022/10/01 10:00:18;;;;;;;5.12;2.35;;;;;;;24.90;46.77;100176.84;1692056;84;21042;-73
2022/10/01 10:02:48;;;;;;;4.62;2.67;;;;;;;25.14;45.94;100179.78;1678705;84;21065;-77
2022/10/01 10:05:20;;;;;;;4.58;1.90;;;;;;;25.30;46.17;100175.16;1684838;84;20998;-74
2022/10/01 10:08:00;;;;;;;3.40;2.00;;;;;;;25.45;44.73;100172.92;1678887;84;22160;-76
2022/10/01 10:10:34;;;;;;;4.40;2.25;;;;;;;25.55;44.07;100178.63;1677159;84;21046;-73
2022/10/01 10:13:04;;;;;;;4.37;1.92;;;;;;;25.50;43.35;100172.26;1697586;84;21026;-73
2022/10/01 10:15:31;;;;;;;4.17;1.92;;;;;;;25.40;43.89;100161.44;1690395;84;21591;-73
2022/10/01 10:18:09;;;;;;;6.10;2.00;;;;;;;25.46;44.27;100170.51;1679507;84;21036;-76
2022/10/01 10:20:40;;;;;;;2.60;1.47;;;;;;;25.58;44.19;100172.80;1694228;83;21921;-73
2022/10/01 10:23:19;;;;;;;2.62;1.60;;;;;;;25.62;42.63;100173.98;1698808;83;21003;-74
2022/10/01 10:26:01;;;;;;;4.83;1.50;;;;;;;25.68;41.61;100175.80;1698937;83;21058;-74
2022/10/01 10:28:46;;;;;;;3.02;1.80;;;;;;;25.65;42.29;100165.94;1707213;83;21091;-74
2022/10/01 10:31:20;;;;;;;3.87;1.60;;;;;;;25.67;42.18;100161.98;1703201;83;21035;-75
2022/10/01 10:34:10;;;;;;;4.20;1.67;;;;;;;25.68;41.75;100164.16;1695730;83;21896;-76
2022/10/01 10:36:36;;;;;;;3.55;1.60;;;;;;;25.65;42.11;100166.77;1711194;83;21086;-77
2022/10/01 10:39:05;;;;;;;2.80;1.50;;;;;;;25.62;43.21;100160.46;1708663;83;21066;-78
2022/10/01 10:41:31;;;;;;;1.90;1.42;;;;;;;25.71;41.73;100159.67;1679125;84;21527;-78
2022/10/01 10:44:06;;;;;;;2.45;1.50;;;;;;;25.71;42.58;100159.67;1686687;85;21155;-80
2022/10/01 10:46:34;;;;;;;2.20;1.67;;;;;;;25.74;41.88;100165.14;1707092;83;22470;-77
2022/10/01 10:49:06;;;;;;;1.50;1.30;;;;;;;25.61;42.17;100162.87;1709038;83;21091;-77
2022/10/01 10:51:52;;;;;;;2.37;1.50;;;;;;;25.51;42.01;100165.27;1657121;85;21524;-77
2022/10/01 10:54:38;;;;;;;1.62;1.20;;;;;;;25.45;41.79;100162.63;1695136;83;21054;-77
2022/10/01 10:57:32;;;;;;;2.60;1.30;;;;;;;25.33;42.27;100156.61;1688011;83;21018;-77
2022/10/01 11:00:04;;;;;;;2.95;1.50;;;;;;;25.34;42.48;100159.61;1677296;83;22652;-76
2022/10/01 11:02:32;;;;;;;3.62;1.32;;;;;;;25.44;42.73;100159.63;1705649;83;21495;-76
2022/10/01 11:05:20;;;;;;;2.25;1.50;;;;;;;25.39;41.89;100158.44;1709051;83;20973;-76
2022/10/01 11:07:48;;;;;;;2.87;1.47;;;;;;;25.26;42.72;100153.66;1701906;83;21035;-76
2022/10/01 11:10:50;;;;;;;3.70;1.50;;;;;;;25.23;43.30;100150.89;1687037;83;21039;-76
2022/10/01 11:13:25;;;;;;;3.22;1.60;;;;;;;25.31;43.64;100151.13;1748306;80;21837;-75
2022/10/01 11:16:14;;;;;;;1.77;1.57;;;;;;;25.46;43.49;100146.70;1711492;83;21499;-76
2022/10/01 11:19:06;;;;;;;3.33;1.40;;;;;;;25.59;43.94;100153.34;1689471;83;21005;-77
2022/10/01 11:22:01;;;;;;;3.47;1.40;;;;;;;25.77;43.46;100152.51;1702256;83;21052;-77
2022/10/01 11:24:55;;;;;;;2.02;1.20;;;;;;;25.82;41.62;100151.32;1657036;86;21095;-76
2022/10/01 11:27:50;;;;;;;1.87;1.32;;;;;;;25.66;42.13;100137.30;1707381;82;21918;-74
2022/10/01 11:30:25;;;;;;;2.55;1.20;;;;;;;25.70;42.15;100135.03;1675130;83;21032;-75
2022/10/01 11:33:17;;;;;;;3.12;1.27;;;;;;;25.74;41.75;100144.33;1703607;82;20938;-76
2022/10/01 11:35:54;;;;;;;1.77;1.15;;;;;;;25.74;42.10;100135.39;1666406;85;21066;-74
2022/10/01 11:38:50;;;;;;;3.05;1.17;;;;;;;25.82;41.53;100133.73;1681245;85;21059;-74
2022/10/01 11:41:25;;;;;;;1.85;1.15;;;;;;;25.85;41.34;100122.45;1629590;86;22837;-74
2022/10/01 11:44:01;;;;;;;1.80;1.32;;;;;;;25.85;41.49;100132.73;1667600;84;21082;-75